sensor_id;sensor_type;location;lat;lon;timestamp;P1;durP1;ratioP1;P2;durP2;ratioP2
44985;SDS011;30721;49.380;7.736;2022-07-04T00:02:10;1.67;;;0.80;;
44985;SDS011;30721;49.380;7.736;2022-07-04T00:04:36;2.72;;;0.70;;
44985;SDS011;30721;49.380;7.736;2022-07-04T00:07:01;1.30;;;0.70;;
44985;SDS011;30721;49.380;7.736;2022-07-04T00:09:27;1.27;;;0.70;;
44985;SDS011;30721;49.380;7.736;2022-07-04T00:11:52;1.25;;;0.65;;
44985;SDS011;30721;49.380;7.736;2022-07-04T00:14:18;0.65;;;0.63;;
44985;SDS011;30721;49.380;7.736;2022-07-04T00:16:43;1.38;;;0.60;;
44985;SDS011;30721;49.380;7.736;2022-07-04T00:19:08;2.03;;;0.80;;
44985;SDS011;30721;49.380;7.736;2022-07-04T00:21:34;1.02;;;0.70;;
44985;SDS011;30721;49.380;7.736;2022-07-04T00:24:00;2.55;;;0.88;;
44985;SDS011;30721;49.380;7.736;2022-07-04T00:26:25;0.90;;;0.80;;
44985;SDS011;30721;49.380;7.736;2022-07-04T00:28:51;1.40;;;0.63;;
44985;SDS011;30721;49.380;7.736;2022-07-04T00:31:16;1.15;;;0.70;;
44985;SDS011;30721;49.380;7.736;2022-07-04T00:33:42;2.45;;;0.90;;
44985;SDS011;30721;49.380;7.736;2022-07-04T00:36:07;1.38;;;0.70;;
44985;SDS011;30721;49.380;7.736;2022-07-04T00:38:32;1.80;;;0.60;;
44985;SDS011;30721;49.380;7.736;2022-07-04T00:40:58;1.25;;;0.75;;
44985;SDS011;30721;49.380;7.736;2022-07-04T00:43:24;1.23;;;0.68;;
44985;SDS011;30721;49.380;7.736;2022-07-04T00:45:50;5.88;;;0.70;;
44985;SDS011;30721;49.380;7.736;2022-07-04T00:48:16;2.72;;;0.77;;
44985;SDS011;30721;49.380;7.736;2022-07-04T00:50:45;2.05;;;0.57;;
44985;SDS011;30721;49.380;7.736;2022-07-04T00:53:12;0.93;;;0.70;;
44985;SDS011;30721;49.380;7.736;2022-07-04T00:55:41;1.45;;;0.57;;
44985;SDS011;30721;49.380;7.736;2022-07-04T00:58:07;2.50;;;0.75;;
44985;SDS011;30721;49.380;7.736;2022-07-04T01:00:32;1.20;;;0.55;;
44985;SDS011;30721;49.380;7.736;2022-07-04T01:02:58;2.00;;;0.90;;
44985;SDS011;30721;49.380;7.736;2022-07-04T01:05:23;1.38;;;0.70;;
44985;SDS011;30721;49.380;7.736;2022-07-04T01:07:49;1.30;;;0.60;;
44985;SDS011;30721;49.380;7.736;2022-07-04T01:10:14;1.60;;;0.60;;
44985;SDS011;30721;49.380;7.736;2022-07-04T01:12:40;1.60;;;0.80;;
44985;SDS011;30721;49.380;7.736;2022-07-04T01:15:06;1.25;;;0.75;;
44985;SDS011;30721;49.380;7.736;2022-07-04T01:17:32;0.70;;;0.60;;
44985;SDS011;30721;49.380;7.736;2022-07-04T01:19:57;1.98;;;1.13;;
44985;SDS011;30721;49.380;7.736;2022-07-04T01:22:23;1.10;;;0.60;;
44985;SDS011;30721;49.380;7.736;2022-07-04T01:24:49;3.72;;;0.90;;
44985;SDS011;30721;49.380;7.736;2022-07-04T01:27:15;1.45;;;0.70;;
44985;SDS011;30721;49.380;7.736;2022-07-04T01:29:41;1.83;;;1.10;;
44985;SDS011;30721;49.380;7.736;2022-07-04T01:32:06;1.35;;;0.55;;
44985;SDS011;30721;49.380;7.736;2022-07-04T01:34:33;1.52;;;0.63;;
44985;SDS011;30721;49.380;7.736;2022-07-04T01:36:59;0.88;;;0.60;;
44985;SDS011;30721;49.380;7.736;2022-07-04T01:39:25;2.08;;;1.00;;
44985;SDS011;30721;49.380;7.736;2022-07-04T01:41:51;1.77;;;0.88;;
44985;SDS011;30721;49.380;7.736;2022-07-04T01:44:17;1.30;;;0.68;;
44985;SDS011;30721;49.380;7.736;2022-07-04T01:46:42;1.45;;;0.70;;
44985;SDS011;30721;49.380;7.736;2022-07-04T01:49:07;1.35;;;1.25;;
44985;SDS011;30721;49.380;7.736;2022-07-04T01:51:33;2.97;;;0.90;;
44985;SDS011;30721;49.380;7.736;2022-07-04T01:53:59;1.85;;;0.90;;
44985;SDS011;30721;49.380;7.736;2022-07-04T01:56:24;2.15;;;0.77;;
44985;SDS011;30721;49.380;7.736;2022-07-04T01:58:50;1.20;;;0.80;;
44985;SDS011;30721;49.380;7.736;2022-07-04T02:01:15;2.28;;;0.80;;
44985;SDS011;30721;49.380;7.736;2022-07-04T02:03:56;1.23;;;0.70;;
44985;SDS011;30721;49.380;7.736;2022-07-04T02:06:22;1.10;;;0.70;;
44985;SDS011;30721;49.380;7.736;2022-07-04T02:08:48;2.35;;;1.15;;
44985;SDS011;30721;49.380;7.736;2022-07-04T02:11:32;1.02;;;0.93;;
44985;SDS011;30721;49.380;7.736;2022-07-04T02:16:42;2.40;;;0.90;;
44985;SDS011;30721;49.380;7.736;2022-07-04T02:19:08;2.25;;;0.73;;
44985;SDS011;30721;49.380;7.736;2022-07-04T02:21:33;1.77;;;1.08;;
44985;SDS011;30721;49.380;7.736;2022-07-04T02:23:58;1.85;;;0.80;;
44985;SDS011;30721;49.380;7.736;2022-07-04T02:26:24;3.28;;;0.95;;
44985;SDS011;30721;49.380;7.736;2022-07-04T02:28:49;1.77;;;0.90;;
44985;SDS011;30721;49.380;7.736;2022-07-04T02:31:16;1.90;;;1.00;;
44985;SDS011;30721;49.380;7.736;2022-07-04T02:33:42;1.95;;;1.08;;
44985;SDS011;30721;49.380;7.736;2022-07-04T02:36:07;1.50;;;0.65;;
44985;SDS011;30721;49.380;7.736;2022-07-04T02:38:32;2.63;;;0.88;;
44985;SDS011;30721;49.380;7.736;2022-07-04T02:40:58;2.15;;;1.00;;
44985;SDS011;30721;49.380;7.736;2022-07-04T02:43:23;1.23;;;0.80;;
44985;SDS011;30721;49.380;7.736;2022-07-04T02:45:48;1.58;;;1.00;;
44985;SDS011;30721;49.380;7.736;2022-07-04T02:48:14;2.38;;;0.95;;
44985;SDS011;30721;49.380;7.736;2022-07-04T02:50:39;1.15;;;1.05;;
44985;SDS011;30721;49.380;7.736;2022-07-04T02:53:04;0.82;;;0.80;;
44985;SDS011;30721;49.380;7.736;2022-07-04T02:55:30;1.52;;;1.00;;
44985;SDS011;30721;49.380;7.736;2022-07-04T02:57:55;1.98;;;1.05;;
44985;SDS011;30721;49.380;7.736;2022-07-04T03:00:21;0.80;;;0.80;;
44985;SDS011;30721;49.380;7.736;2022-07-04T03:02:46;2.42;;;0.90;;
44985;SDS011;30721;49.380;7.736;2022-07-04T03:05:11;1.92;;;1.15;;
44985;SDS011;30721;49.380;7.736;2022-07-04T03:07:37;1.10;;;1.00;;
44985;SDS011;30721;49.380;7.736;2022-07-04T03:10:02;1.70;;;0.73;;
44985;SDS011;30721;49.380;7.736;2022-07-04T03:12:28;1.55;;;1.05;;
44985;SDS011;30721;49.380;7.736;2022-07-04T03:14:53;1.20;;;1.10;;
44985;SDS011;30721;49.380;7.736;2022-07-04T03:17:19;2.13;;;1.00;;
44985;SDS011;30721;49.380;7.736;2022-07-04T03:19:45;2.33;;;0.95;;
44985;SDS011;30721;49.380;7.736;2022-07-04T03:22:10;2.50;;;1.20;;
44985;SDS011;30721;49.380;7.736;2022-07-04T03:24:36;1.55;;;0.90;;
44985;SDS011;30721;49.380;7.736;2022-07-04T03:27:01;2.17;;;1.33;;
44985;SDS011;30721;49.380;7.736;2022-07-04T03:29:26;2.60;;;0.98;;
44985;SDS011;30721;49.380;7.736;2022-07-04T03:31:52;2.40;;;1.02;;
44985;SDS011;30721;49.380;7.736;2022-07-04T03:34:17;1.15;;;0.90;;
44985;SDS011;30721;49.380;7.736;2022-07-04T03:36:42;1.08;;;0.82;;
44985;SDS011;30721;49.380;7.736;2022-07-04T03:39:08;1.90;;;1.20;;
44985;SDS011;30721;49.380;7.736;2022-07-04T03:41:33;1.20;;;1.10;;
44985;SDS011;30721;49.380;7.736;2022-07-04T03:43:59;2.05;;;0.98;;
44985;SDS011;30721;49.380;7.736;2022-07-04T03:46:24;1.88;;;1.60;;
44985;SDS011;30721;49.380;7.736;2022-07-04T03:48:50;1.85;;;1.25;;
44985;SDS011;30721;49.380;7.736;2022-07-04T03:51:15;1.52;;;1.23;;
44985;SDS011;30721;49.380;7.736;2022-07-04T03:53:41;1.88;;;1.30;;
44985;SDS011;30721;49.380;7.736;2022-07-04T03:56:07;1.80;;;1.20;;
44985;SDS011;30721;49.380;7.736;2022-07-04T03:58:33;1.10;;;1.00;;
44985;SDS011;30721;49.380;7.736;2022-07-04T04:00:59;1.33;;;1.20;;
44985;SDS011;30721;49.380;7.736;2022-07-04T04:03:24;2.03;;;1.20;;
44985;SDS011;30721;49.380;7.736;2022-07-04T04:06:08;1.92;;;1.00;;
44985;SDS011;30721;49.380;7.736;2022-07-04T04:08:34;2.47;;;1.33;;
44985;SDS011;30721;49.380;7.736;2022-07-04T04:10:59;2.05;;;1.60;;
44985;SDS011;30721;49.380;7.736;2022-07-04T04:13:24;1.42;;;1.33;;
44985;SDS011;30721;49.380;7.736;2022-07-04T04:15:50;1.00;;;0.90;;
44985;SDS011;30721;49.380;7.736;2022-07-04T04:18:15;2.70;;;1.50;;
44985;SDS011;30721;49.380;7.736;2022-07-04T04:20:41;2.47;;;1.38;;
44985;SDS011;30721;49.380;7.736;2022-07-04T04:23:06;1.33;;;0.98;;
44985;SDS011;30721;49.380;7.736;2022-07-04T04:25:31;12.20;;;1.95;;
44985;SDS011;30721;49.380;7.736;2022-07-04T04:27:57;1.70;;;1.13;;
44985;SDS011;30721;49.380;7.736;2022-07-04T04:30:23;1.95;;;1.10;;
44985;SDS011;30721;49.380;7.736;2022-07-04T04:32:48;4.57;;;1.55;;
44985;SDS011;30721;49.380;7.736;2022-07-04T04:35:13;1.95;;;1.75;;
44985;SDS011;30721;49.380;7.736;2022-07-04T04:37:39;1.48;;;1.00;;
44985;SDS011;30721;49.380;7.736;2022-07-04T04:40:04;1.50;;;1.02;;
44985;SDS011;30721;49.380;7.736;2022-07-04T04:42:30;3.05;;;1.33;;
44985;SDS011;30721;49.380;7.736;2022-07-04T04:44:56;2.35;;;1.38;;
44985;SDS011;30721;49.380;7.736;2022-07-04T04:47:21;1.55;;;1.10;;
44985;SDS011;30721;49.380;7.736;2022-07-04T04:49:46;2.33;;;1.08;;
44985;SDS011;30721;49.380;7.736;2022-07-04T04:52:12;1.30;;;1.15;;
44985;SDS011;30721;49.380;7.736;2022-07-04T04:54:38;3.42;;;1.50;;
44985;SDS011;30721;49.380;7.736;2022-07-04T04:57:03;1.33;;;1.23;;
44985;SDS011;30721;49.380;7.736;2022-07-04T04:59:29;1.88;;;1.63;;
44985;SDS011;30721;49.380;7.736;2022-07-04T05:01:56;1.35;;;1.13;;
44985;SDS011;30721;49.380;7.736;2022-07-04T05:04:22;1.58;;;1.33;;
44985;SDS011;30721;49.380;7.736;2022-07-04T05:06:47;1.42;;;1.15;;
44985;SDS011;30721;49.380;7.736;2022-07-04T05:09:13;2.17;;;1.27;;
44985;SDS011;30721;49.380;7.736;2022-07-04T05:11:38;1.50;;;1.35;;
44985;SDS011;30721;49.380;7.736;2022-07-04T05:14:03;2.38;;;1.55;;
44985;SDS011;30721;49.380;7.736;2022-07-04T05:16:29;2.33;;;1.83;;
44985;SDS011;30721;49.380;7.736;2022-07-04T05:18:54;2.63;;;1.75;;
44985;SDS011;30721;49.380;7.736;2022-07-04T05:21:20;2.75;;;1.80;;
44985;SDS011;30721;49.380;7.736;2022-07-04T05:23:45;3.70;;;1.90;;
44985;SDS011;30721;49.380;7.736;2022-07-04T05:26:10;3.58;;;1.85;;
44985;SDS011;30721;49.380;7.736;2022-07-04T05:28:36;1.40;;;1.30;;
44985;SDS011;30721;49.380;7.736;2022-07-04T05:31:01;2.03;;;1.35;;
44985;SDS011;30721;49.380;7.736;2022-07-04T05:33:26;2.40;;;1.63;;
44985;SDS011;30721;49.380;7.736;2022-07-04T05:35:52;2.30;;;1.50;;
44985;SDS011;30721;49.380;7.736;2022-07-04T05:38:17;2.58;;;1.48;;
44985;SDS011;30721;49.380;7.736;2022-07-04T05:40:43;2.95;;;1.70;;
44985;SDS011;30721;49.380;7.736;2022-07-04T05:43:08;2.25;;;1.30;;
44985;SDS011;30721;49.380;7.736;2022-07-04T05:45:35;2.10;;;1.35;;
44985;SDS011;30721;49.380;7.736;2022-07-04T05:48:00;2.10;;;1.60;;
44985;SDS011;30721;49.380;7.736;2022-07-04T05:50:26;4.75;;;1.58;;
44985;SDS011;30721;49.380;7.736;2022-07-04T05:52:51;2.35;;;1.48;;
44985;SDS011;30721;49.380;7.736;2022-07-04T05:55:16;1.85;;;1.50;;
44985;SDS011;30721;49.380;7.736;2022-07-04T05:57:42;2.65;;;1.35;;
44985;SDS011;30721;49.380;7.736;2022-07-04T06:00:07;1.70;;;1.60;;
44985;SDS011;30721;49.380;7.736;2022-07-04T06:02:33;2.53;;;1.60;;
44985;SDS011;30721;49.380;7.736;2022-07-04T06:04:59;2.88;;;2.17;;
44985;SDS011;30721;49.380;7.736;2022-07-04T06:07:24;4.53;;;1.60;;
44985;SDS011;30721;49.380;7.736;2022-07-04T06:09:49;2.78;;;1.52;;
44985;SDS011;30721;49.380;7.736;2022-07-04T06:12:15;2.72;;;1.75;;
44985;SDS011;30721;49.380;7.736;2022-07-04T06:14:40;2.75;;;1.45;;
44985;SDS011;30721;49.380;7.736;2022-07-04T06:17:06;2.60;;;1.60;;
44985;SDS011;30721;49.380;7.736;2022-07-04T06:19:31;1.75;;;1.35;;
44985;SDS011;30721;49.380;7.736;2022-07-04T06:21:56;1.95;;;1.40;;
44985;SDS011;30721;49.380;7.736;2022-07-04T06:24:22;2.13;;;1.38;;
44985;SDS011;30721;49.380;7.736;2022-07-04T06:26:48;2.38;;;1.70;;
44985;SDS011;30721;49.380;7.736;2022-07-04T06:29:13;3.65;;;1.67;;
44985;SDS011;30721;49.380;7.736;2022-07-04T06:31:38;4.32;;;2.15;;
44985;SDS011;30721;49.380;7.736;2022-07-04T06:34:04;2.78;;;1.90;;
44985;SDS011;30721;49.380;7.736;2022-07-04T06:36:48;2.42;;;1.50;;
44985;SDS011;30721;49.380;7.736;2022-07-04T06:39:13;2.80;;;1.83;;
44985;SDS011;30721;49.380;7.736;2022-07-04T06:41:39;1.98;;;1.48;;
44985;SDS011;30721;49.380;7.736;2022-07-04T06:44:04;2.42;;;1.80;;
44985;SDS011;30721;49.380;7.736;2022-07-04T06:46:30;4.20;;;1.70;;
44985;SDS011;30721;49.380;7.736;2022-07-04T06:48:55;2.97;;;1.40;;
44985;SDS011;30721;49.380;7.736;2022-07-04T06:51:21;2.78;;;1.40;;
44985;SDS011;30721;49.380;7.736;2022-07-04T06:53:47;3.55;;;1.60;;
44985;SDS011;30721;49.380;7.736;2022-07-04T06:56:12;3.42;;;1.80;;
44985;SDS011;30721;49.380;7.736;2022-07-04T06:58:37;3.03;;;1.50;;
44985;SDS011;30721;49.380;7.736;2022-07-04T07:01:03;2.45;;;1.13;;
44985;SDS011;30721;49.380;7.736;2022-07-04T07:03:28;1.80;;;1.30;;
44985;SDS011;30721;49.380;7.736;2022-07-04T07:05:54;2.33;;;1.38;;
44985;SDS011;30721;49.380;7.736;2022-07-04T07:08:22;2.88;;;1.55;;
44985;SDS011;30721;49.380;7.736;2022-07-04T07:10:48;2.22;;;1.27;;
44985;SDS011;30721;49.380;7.736;2022-07-04T07:13:13;2.30;;;1.20;;
44985;SDS011;30721;49.380;7.736;2022-07-04T07:15:39;2.25;;;1.33;;
44985;SDS011;30721;49.380;7.736;2022-07-04T07:18:05;4.03;;;1.23;;
44985;SDS011;30721;49.380;7.736;2022-07-04T07:20:30;2.10;;;0.90;;
44985;SDS011;30721;49.380;7.736;2022-07-04T07:22:55;4.45;;;1.40;;
44985;SDS011;30721;49.380;7.736;2022-07-04T07:25:21;1.65;;;1.10;;
44985;SDS011;30721;49.380;7.736;2022-07-04T07:27:46;2.30;;;1.20;;
44985;SDS011;30721;49.380;7.736;2022-07-04T07:30:12;1.70;;;1.13;;
44985;SDS011;30721;49.380;7.736;2022-07-04T07:32:37;2.15;;;1.30;;
44985;SDS011;30721;49.380;7.736;2022-07-04T07:35:03;2.30;;;1.17;;
44985;SDS011;30721;49.380;7.736;2022-07-04T07:37:29;1.50;;;1.10;;
44985;SDS011;30721;49.380;7.736;2022-07-04T07:39:54;2.78;;;1.15;;
44985;SDS011;30721;49.380;7.736;2022-07-04T07:42:19;1.73;;;1.00;;
44985;SDS011;30721;49.380;7.736;2022-07-04T07:44:45;2.38;;;1.27;;
44985;SDS011;30721;49.380;7.736;2022-07-04T07:47:14;1.45;;;1.10;;
44985;SDS011;30721;49.380;7.736;2022-07-04T07:49:40;2.63;;;1.50;;
44985;SDS011;30721;49.380;7.736;2022-07-04T07:52:06;2.50;;;1.60;;
44985;SDS011;30721;49.380;7.736;2022-07-04T07:54:32;3.22;;;1.38;;
44985;SDS011;30721;49.380;7.736;2022-07-04T07:56:57;3.38;;;1.42;;
44985;SDS011;30721;49.380;7.736;2022-07-04T07:59:23;3.72;;;1.40;;
44985;SDS011;30721;49.380;7.736;2022-07-04T08:01:48;1.73;;;1.38;;
44985;SDS011;30721;49.380;7.736;2022-07-04T08:04:13;2.20;;;1.20;;
44985;SDS011;30721;49.380;7.736;2022-07-04T08:06:57;2.08;;;1.35;;
44985;SDS011;30721;49.380;7.736;2022-07-04T08:09:23;1.42;;;1.10;;
44985;SDS011;30721;49.380;7.736;2022-07-04T08:11:48;3.38;;;1.00;;
44985;SDS011;30721;49.380;7.736;2022-07-04T08:14:13;2.42;;;1.88;;
44985;SDS011;30721;49.380;7.736;2022-07-04T08:16:39;2.47;;;1.10;;
44985;SDS011;30721;49.380;7.736;2022-07-04T08:19:05;3.00;;;1.45;;
44985;SDS011;30721;49.380;7.736;2022-07-04T08:21:31;1.95;;;1.40;;
44985;SDS011;30721;49.380;7.736;2022-07-04T08:23:56;3.88;;;1.30;;
44985;SDS011;30721;49.380;7.736;2022-07-04T08:26:22;1.88;;;0.90;;
44985;SDS011;30721;49.380;7.736;2022-07-04T08:28:47;1.27;;;0.82;;
44985;SDS011;30721;49.380;7.736;2022-07-04T08:31:12;1.40;;;1.30;;
44985;SDS011;30721;49.380;7.736;2022-07-04T08:33:38;2.92;;;1.08;;
44985;SDS011;30721;49.380;7.736;2022-07-04T08:36:03;1.10;;;1.00;;
44985;SDS011;30721;49.380;7.736;2022-07-04T08:38:29;3.22;;;1.20;;
44985;SDS011;30721;49.380;7.736;2022-07-04T08:40:58;1.40;;;0.93;;
44985;SDS011;30721;49.380;7.736;2022-07-04T08:43:24;1.95;;;1.20;;
44985;SDS011;30721;49.380;7.736;2022-07-04T08:45:54;2.80;;;1.00;;
44985;SDS011;30721;49.380;7.736;2022-07-04T08:48:22;1.38;;;0.90;;
44985;SDS011;30721;49.380;7.736;2022-07-04T08:50:51;1.63;;;0.88;;
44985;SDS011;30721;49.380;7.736;2022-07-04T08:53:21;3.15;;;1.50;;
44985;SDS011;30721;49.380;7.736;2022-07-04T08:55:49;2.53;;;0.82;;
44985;SDS011;30721;49.380;7.736;2022-07-04T08:58:33;2.17;;;0.80;;
44985;SDS011;30721;49.380;7.736;2022-07-04T09:01:00;0.77;;;0.77;;
44985;SDS011;30721;49.380;7.736;2022-07-04T09:03:26;1.75;;;0.98;;
44985;SDS011;30721;49.380;7.736;2022-07-04T09:05:52;0.90;;;0.90;;
44985;SDS011;30721;49.380;7.736;2022-07-04T09:08:18;1.48;;;1.40;;
44985;SDS011;30721;49.380;7.736;2022-07-04T09:10:44;1.10;;;1.00;;
44985;SDS011;30721;49.380;7.736;2022-07-04T09:13:10;1.00;;;1.00;;
44985;SDS011;30721;49.380;7.736;2022-07-04T09:15:36;0.70;;;0.70;;
44985;SDS011;30721;49.380;7.736;2022-07-04T09:18:02;1.10;;;1.00;;
44985;SDS011;30721;49.380;7.736;2022-07-04T09:20:28;1.73;;;1.00;;
44985;SDS011;30721;49.380;7.736;2022-07-04T09:22:55;2.08;;;0.98;;
44985;SDS011;30721;49.380;7.736;2022-07-04T09:25:21;2.67;;;0.90;;
44985;SDS011;30721;49.380;7.736;2022-07-04T09:27:49;2.33;;;1.35;;
44985;SDS011;30721;49.380;7.736;2022-07-04T09:30:17;1.60;;;1.10;;
44985;SDS011;30721;49.380;7.736;2022-07-04T09:32:44;2.03;;;1.00;;
44985;SDS011;30721;49.380;7.736;2022-07-04T09:35:16;1.40;;;0.93;;
44985;SDS011;30721;49.380;7.736;2022-07-04T09:37:53;1.80;;;1.00;;
44985;SDS011;30721;49.380;7.736;2022-07-04T09:42:47;1.13;;;0.88;;
44985;SDS011;30721;49.380;7.736;2022-07-04T09:45:12;1.23;;;0.70;;
44985;SDS011;30721;49.380;7.736;2022-07-04T09:47:39;1.80;;;0.93;;
44985;SDS011;30721;49.380;7.736;2022-07-04T09:50:07;1.13;;;1.02;;
44985;SDS011;30721;49.380;7.736;2022-07-04T09:52:50;0.80;;;0.77;;
44985;SDS011;30721;49.380;7.736;2022-07-04T09:57:48;1.85;;;1.20;;
44985;SDS011;30721;49.380;7.736;2022-07-04T10:00:21;1.30;;;1.00;;
44985;SDS011;30721;49.380;7.736;2022-07-04T10:02:49;1.35;;;1.00;;
44985;SDS011;30721;49.380;7.736;2022-07-04T10:05:33;1.10;;;1.00;;
44985;SDS011;30721;49.380;7.736;2022-07-04T10:08:01;0.90;;;0.90;;
44985;SDS011;30721;49.380;7.736;2022-07-04T10:10:33;1.88;;;0.80;;
44985;SDS011;30721;49.380;7.736;2022-07-04T10:13:02;1.45;;;1.10;;
44985;SDS011;30721;49.380;7.736;2022-07-04T10:15:32;11.32;;;2.05;;
44985;SDS011;30721;49.380;7.736;2022-07-04T10:17:58;1.40;;;1.10;;
44985;SDS011;30721;49.380;7.736;2022-07-04T10:20:24;0.77;;;0.77;;
44985;SDS011;30721;49.380;7.736;2022-07-04T10:22:49;0.70;;;0.70;;
44985;SDS011;30721;49.380;7.736;2022-07-04T10:25:15;1.20;;;1.13;;
44985;SDS011;30721;49.380;7.736;2022-07-04T10:27:40;1.08;;;0.90;;
44985;SDS011;30721;49.380;7.736;2022-07-04T10:30:06;2.42;;;1.27;;
44985;SDS011;30721;49.380;7.736;2022-07-04T10:32:35;1.10;;;1.00;;
44985;SDS011;30721;49.380;7.736;2022-07-04T10:35:01;0.90;;;0.90;;
44985;SDS011;30721;49.380;7.736;2022-07-04T10:48:31;2.58;;;1.15;;
44985;SDS011;30721;49.380;7.736;2022-07-04T10:51:00;0.90;;;0.85;;
44985;SDS011;30721;49.380;7.736;2022-07-04T10:53:30;0.90;;;0.90;;
44985;SDS011;30721;49.380;7.736;2022-07-04T10:58:39;0.80;;;0.80;;
44985;SDS011;30721;49.380;7.736;2022-07-04T11:01:12;1.15;;;0.85;;
44985;SDS011;30721;49.380;7.736;2022-07-04T11:03:48;1.77;;;1.10;;
44985;SDS011;30721;49.380;7.736;2022-07-04T11:14:59;1.20;;;1.05;;
44985;SDS011;30721;49.380;7.736;2022-07-04T11:17:21;1.23;;;0.80;;
44985;SDS011;30721;49.380;7.736;2022-07-04T11:20:02;2.25;;;1.30;;
44985;SDS011;30721;49.380;7.736;2022-07-04T11:22:29;1.20;;;1.08;;
44985;SDS011;30721;49.380;7.736;2022-07-04T11:24:55;1.67;;;0.93;;
44985;SDS011;30721;49.380;7.736;2022-07-04T11:27:21;2.15;;;1.30;;
44985;SDS011;30721;49.380;7.736;2022-07-04T11:29:54;0.80;;;0.80;;
44985;SDS011;30721;49.380;7.736;2022-07-04T11:32:20;0.98;;;0.70;;
44985;SDS011;30721;49.380;7.736;2022-07-04T11:34:46;0.80;;;0.80;;
44985;SDS011;30721;49.380;7.736;2022-07-04T11:37:13;1.00;;;0.90;;
44985;SDS011;30721;49.380;7.736;2022-07-04T11:39:39;0.98;;;0.93;;
44985;SDS011;30721;49.380;7.736;2022-07-04T11:42:04;0.93;;;0.88;;
44985;SDS011;30721;49.380;7.736;2022-07-04T11:44:48;1.13;;;1.00;;
44985;SDS011;30721;49.380;7.736;2022-07-04T11:47:40;1.90;;;0.90;;
44985;SDS011;30721;49.380;7.736;2022-07-04T11:55:01;1.67;;;0.90;;
44985;SDS011;30721;49.380;7.736;2022-07-04T11:57:28;2.65;;;1.00;;
44985;SDS011;30721;49.380;7.736;2022-07-04T12:00:00;0.93;;;0.93;;
44985;SDS011;30721;49.380;7.736;2022-07-04T12:02:28;1.13;;;0.73;;
44985;SDS011;30721;49.380;7.736;2022-07-04T12:04:54;1.52;;;0.70;;
44985;SDS011;30721;49.380;7.736;2022-07-04T12:07:22;0.98;;;0.90;;
44985;SDS011;30721;49.380;7.736;2022-07-04T12:09:48;1.90;;;0.80;;
44985;SDS011;30721;49.380;7.736;2022-07-04T12:12:14;2.88;;;0.88;;
44985;SDS011;30721;49.380;7.736;2022-07-04T12:14:55;1.35;;;0.82;;
44985;SDS011;30721;49.380;7.736;2022-07-04T12:17:35;3.80;;;1.00;;
44985;SDS011;30721;49.380;7.736;2022-07-04T12:20:14;1.23;;;0.80;;
44985;SDS011;30721;49.380;7.736;2022-07-04T12:23:03;1.05;;;0.88;;
44985;SDS011;30721;49.380;7.736;2022-07-04T12:28:05;0.98;;;0.82;;
44985;SDS011;30721;49.380;7.736;2022-07-04T12:30:35;1.05;;;1.00;;
44985;SDS011;30721;49.380;7.736;2022-07-04T12:33:03;1.95;;;1.25;;
44985;SDS011;30721;49.380;7.736;2022-07-04T12:35:37;0.70;;;0.70;;
44985;SDS011;30721;49.380;7.736;2022-07-04T12:43:15;0.95;;;0.80;;
44985;SDS011;30721;49.380;7.736;2022-07-04T12:45:45;1.13;;;0.77;;
44985;SDS011;30721;49.380;7.736;2022-07-04T12:48:20;1.02;;;0.52;;
44985;SDS011;30721;49.380;7.736;2022-07-04T12:50:49;1.20;;;0.93;;
44985;SDS011;30721;49.380;7.736;2022-07-04T12:53:16;2.75;;;0.93;;
44985;SDS011;30721;49.380;7.736;2022-07-04T12:55:42;2.47;;;1.15;;
44985;SDS011;30721;49.380;7.736;2022-07-04T12:58:08;0.95;;;0.80;;
44985;SDS011;30721;49.380;7.736;2022-07-04T13:00:34;1.77;;;0.90;;
44985;SDS011;30721;49.380;7.736;2022-07-04T13:03:00;0.80;;;0.80;;
44985;SDS011;30721;49.380;7.736;2022-07-04T13:05:25;1.00;;;1.00;;
44985;SDS011;30721;49.380;7.736;2022-07-04T13:07:51;1.15;;;0.82;;
44985;SDS011;30721;49.380;7.736;2022-07-04T13:10:16;1.98;;;0.93;;
44985;SDS011;30721;49.380;7.736;2022-07-04T13:12:42;1.92;;;0.82;;
44985;SDS011;30721;49.380;7.736;2022-07-04T13:15:07;0.70;;;0.70;;
44985;SDS011;30721;49.380;7.736;2022-07-04T13:17:36;1.13;;;0.82;;
44985;SDS011;30721;49.380;7.736;2022-07-04T13:20:02;0.93;;;0.70;;
44985;SDS011;30721;49.380;7.736;2022-07-04T13:22:28;1.10;;;0.98;;
44985;SDS011;30721;49.380;7.736;2022-07-04T13:24:54;1.83;;;0.93;;
44985;SDS011;30721;49.380;7.736;2022-07-04T13:27:19;1.88;;;1.30;;
44985;SDS011;30721;49.380;7.736;2022-07-04T13:29:45;1.95;;;1.13;;
44985;SDS011;30721;49.380;7.736;2022-07-04T13:32:10;1.10;;;1.10;;
44985;SDS011;30721;49.380;7.736;2022-07-04T13:34:36;0.85;;;0.85;;
44985;SDS011;30721;49.380;7.736;2022-07-04T13:37:01;1.42;;;0.95;;
44985;SDS011;30721;49.380;7.736;2022-07-04T13:39:27;1.58;;;0.80;;
44985;SDS011;30721;49.380;7.736;2022-07-04T13:41:53;1.42;;;1.05;;
44985;SDS011;30721;49.380;7.736;2022-07-04T13:44:18;3.17;;;1.17;;
44985;SDS011;30721;49.380;7.736;2022-07-04T13:46:43;0.88;;;0.88;;
44985;SDS011;30721;49.380;7.736;2022-07-04T13:49:09;0.93;;;0.90;;
44985;SDS011;30721;49.380;7.736;2022-07-04T13:51:44;1.92;;;1.10;;
44985;SDS011;30721;49.380;7.736;2022-07-04T13:54:10;3.25;;;1.10;;
44985;SDS011;30721;49.380;7.736;2022-07-04T13:56:35;1.85;;;0.98;;
44985;SDS011;30721;49.380;7.736;2022-07-04T13:59:01;2.53;;;0.85;;
44985;SDS011;30721;49.380;7.736;2022-07-04T14:01:27;0.88;;;0.80;;
44985;SDS011;30721;49.380;7.736;2022-07-04T14:03:53;0.80;;;0.80;;
44985;SDS011;30721;49.380;7.736;2022-07-04T14:06:18;3.03;;;1.00;;
44985;SDS011;30721;49.380;7.736;2022-07-04T14:08:44;1.25;;;0.80;;
44985;SDS011;30721;49.380;7.736;2022-07-04T14:11:10;0.80;;;0.70;;
44985;SDS011;30721;49.380;7.736;2022-07-04T14:13:38;1.98;;;0.80;;
44985;SDS011;30721;49.380;7.736;2022-07-04T14:16:05;0.80;;;0.80;;
44985;SDS011;30721;49.380;7.736;2022-07-04T14:18:31;0.68;;;0.68;;
44985;SDS011;30721;49.380;7.736;2022-07-04T14:20:57;1.48;;;0.73;;
44985;SDS011;30721;49.380;7.736;2022-07-04T14:23:23;0.80;;;0.80;;
44985;SDS011;30721;49.380;7.736;2022-07-04T14:26:07;0.85;;;0.85;;
44985;SDS011;30721;49.380;7.736;2022-07-04T14:28:34;0.60;;;0.60;;
44985;SDS011;30721;49.380;7.736;2022-07-04T14:30:59;1.58;;;0.52;;
44985;SDS011;30721;49.380;7.736;2022-07-04T14:33:25;0.80;;;0.70;;
44985;SDS011;30721;49.380;7.736;2022-07-04T14:35:51;1.23;;;0.70;;
44985;SDS011;30721;49.380;7.736;2022-07-04T14:38:17;0.60;;;0.60;;
44985;SDS011;30721;49.380;7.736;2022-07-04T14:40:43;0.95;;;0.68;;
44985;SDS011;30721;49.380;7.736;2022-07-04T14:43:11;1.13;;;0.77;;
44985;SDS011;30721;49.380;7.736;2022-07-04T14:45:38;0.55;;;0.50;;
44985;SDS011;30721;49.380;7.736;2022-07-04T14:48:03;1.15;;;0.60;;
44985;SDS011;30721;49.380;7.736;2022-07-04T14:50:29;0.77;;;0.75;;
44985;SDS011;30721;49.380;7.736;2022-07-04T14:52:55;0.65;;;0.65;;
44985;SDS011;30721;49.380;7.736;2022-07-04T14:55:20;0.68;;;0.43;;
44985;SDS011;30721;49.380;7.736;2022-07-04T14:57:46;0.60;;;0.60;;
44985;SDS011;30721;49.380;7.736;2022-07-04T15:00:11;1.27;;;0.90;;
44985;SDS011;30721;49.380;7.736;2022-07-04T15:02:37;1.05;;;0.50;;
44985;SDS011;30721;49.380;7.736;2022-07-04T15:05:02;1.02;;;0.60;;
44985;SDS011;30721;49.380;7.736;2022-07-04T15:07:28;1.13;;;0.80;;
44985;SDS011;30721;49.380;7.736;2022-07-04T15:09:55;1.42;;;0.73;;
44985;SDS011;30721;49.380;7.736;2022-07-04T15:12:20;0.50;;;0.50;;
44985;SDS011;30721;49.380;7.736;2022-07-04T15:14:46;0.88;;;0.50;;
44985;SDS011;30721;49.380;7.736;2022-07-04T15:17:12;0.40;;;0.40;;
44985;SDS011;30721;49.380;7.736;2022-07-04T15:19:37;2.13;;;0.95;;
44985;SDS011;30721;49.380;7.736;2022-07-04T15:22:22;0.85;;;0.70;;
44985;SDS011;30721;49.380;7.736;2022-07-04T15:25:06;0.63;;;0.63;;
44985;SDS011;30721;49.380;7.736;2022-07-04T15:27:33;1.17;;;0.60;;
44985;SDS011;30721;49.380;7.736;2022-07-04T15:29:58;0.70;;;0.60;;